sensor_id;sensor_type;location;lat;lon;timestamp;P1;durP1;ratioP1;P2;durP2;ratioP2
69754;SDS011;57023;52.218;5.158;2023-06-14T00:01:31;9.18;;;4.30;;
69754;SDS011;57023;52.218;5.158;2023-06-14T00:03:59;8.63;;;4.35;;
69754;SDS011;57023;52.218;5.158;2023-06-14T00:06:25;8.80;;;4.10;;
69754;SDS011;57023;52.218;5.158;2023-06-14T00:08:51;10.27;;;4.20;;
69754;SDS011;57023;52.218;5.158;2023-06-14T00:11:16;5.80;;;3.97;;
69754;SDS011;57023;52.218;5.158;2023-06-14T00:13:41;10.02;;;4.30;;
69754;SDS011;57023;52.218;5.158;2023-06-14T00:16:08;7.93;;;4.03;;
69754;SDS011;57023;52.218;5.158;2023-06-14T00:18:33;10.02;;;4.25;;
69754;SDS011;57023;52.218;5.158;2023-06-14T00:20:59;8.80;;;4.10;;
69754;SDS011;57023;52.218;5.158;2023-06-14T00:23:27;9.50;;;4.20;;
69754;SDS011;57023;52.218;5.158;2023-06-14T00:25:52;6.18;;;3.90;;
69754;SDS011;57023;52.218;5.158;2023-06-14T00:28:17;10.45;;;4.10;;
69754;SDS011;57023;52.218;5.158;2023-06-14T00:30:43;7.00;;;4.40;;
69754;SDS011;57023;52.218;5.158;2023-06-14T00:33:11;7.03;;;4.15;;
69754;SDS011;57023;52.218;5.158;2023-06-14T00:35:36;9.00;;;4.00;;
69754;SDS011;57023;52.218;5.158;2023-06-14T00:38:02;7.53;;;3.92;;
69754;SDS011;57023;52.218;5.158;2023-06-14T00:40:27;7.32;;;3.90;;
69754;SDS011;57023;52.218;5.158;2023-06-14T00:42:52;7.55;;;4.00;;
69754;SDS011;57023;52.218;5.158;2023-06-14T00:45:18;9.00;;;3.90;;
69754;SDS011;57023;52.218;5.158;2023-06-14T00:47:43;8.32;;;4.10;;
69754;SDS011;57023;52.218;5.158;2023-06-14T00:50:09;7.47;;;4.40;;
69754;SDS011;57023;52.218;5.158;2023-06-14T00:52:34;9.10;;;4.20;;
69754;SDS011;57023;52.218;5.158;2023-06-14T00:55:00;6.90;;;4.10;;
69754;SDS011;57023;52.218;5.158;2023-06-14T00:57:26;10.25;;;4.10;;
69754;SDS011;57023;52.218;5.158;2023-06-14T00:59:51;10.52;;;4.80;;
69754;SDS011;57023;52.218;5.158;2023-06-14T01:02:16;7.25;;;4.10;;
69754;SDS011;57023;52.218;5.158;2023-06-14T01:04:43;8.18;;;4.20;;
69754;SDS011;57023;52.218;5.158;2023-06-14T01:10:31;6.85;;;4.10;;
69754;SDS011;57023;52.218;5.158;2023-06-14T01:15:56;8.25;;;4.10;;
69754;SDS011;57023;52.218;5.158;2023-06-14T01:18:22;7.75;;;4.00;;
69754;SDS011;57023;52.218;5.158;2023-06-14T01:20:51;7.70;;;4.20;;
69754;SDS011;57023;52.218;5.158;2023-06-14T01:23:18;8.35;;;3.58;;
69754;SDS011;57023;52.218;5.158;2023-06-14T01:25:44;7.30;;;4.10;;
69754;SDS011;57023;52.218;5.158;2023-06-14T01:28:09;9.25;;;3.88;;
69754;SDS011;57023;52.218;5.158;2023-06-14T01:30:37;9.15;;;3.85;;
69754;SDS011;57023;52.218;5.158;2023-06-14T01:35:28;8.43;;;4.00;;
69754;SDS011;57023;52.218;5.158;2023-06-14T01:37:53;6.68;;;4.00;;
69754;SDS011;57023;52.218;5.158;2023-06-14T01:40:19;10.32;;;4.07;;
69754;SDS011;57023;52.218;5.158;2023-06-14T01:42:46;10.18;;;3.72;;
69754;SDS011;57023;52.218;5.158;2023-06-14T01:45:13;6.53;;;3.90;;
69754;SDS011;57023;52.218;5.158;2023-06-14T01:47:39;7.95;;;3.75;;
69754;SDS011;57023;52.218;5.158;2023-06-14T01:50:05;8.18;;;3.80;;
69754;SDS011;57023;52.218;5.158;2023-06-14T01:52:30;7.40;;;3.97;;
69754;SDS011;57023;52.218;5.158;2023-06-14T01:54:56;7.97;;;3.80;;
69754;SDS011;57023;52.218;5.158;2023-06-14T01:57:23;11.80;;;4.35;;
69754;SDS011;57023;52.218;5.158;2023-06-14T01:59:49;8.50;;;3.90;;
69754;SDS011;57023;52.218;5.158;2023-06-14T02:02:14;9.25;;;4.40;;
69754;SDS011;57023;52.218;5.158;2023-06-14T02:04:40;9.90;;;3.75;;
69754;SDS011;57023;52.218;5.158;2023-06-14T02:07:06;10.15;;;3.90;;
69754;SDS011;57023;52.218;5.158;2023-06-14T02:09:31;7.97;;;3.90;;
69754;SDS011;57023;52.218;5.158;2023-06-14T02:11:57;8.98;;;3.90;;
69754;SDS011;57023;52.218;5.158;2023-06-14T02:14:22;9.55;;;4.00;;
69754;SDS011;57023;52.218;5.158;2023-06-14T02:16:51;7.50;;;3.83;;
69754;SDS011;57023;52.218;5.158;2023-06-14T02:19:18;9.25;;;3.67;;
69754;SDS011;57023;52.218;5.158;2023-06-14T02:21:44;8.32;;;4.00;;
69754;SDS011;57023;52.218;5.158;2023-06-14T02:24:10;7.53;;;3.70;;
69754;SDS011;57023;52.218;5.158;2023-06-14T02:26:35;5.88;;;3.65;;
69754;SDS011;57023;52.218;5.158;2023-06-14T02:31:28;8.20;;;3.90;;
69754;SDS011;57023;52.218;5.158;2023-06-14T02:33:54;6.82;;;3.92;;
69754;SDS011;57023;52.218;5.158;2023-06-14T02:36:19;9.15;;;3.78;;
69754;SDS011;57023;52.218;5.158;2023-06-14T02:38:45;6.88;;;3.92;;
69754;SDS011;57023;52.218;5.158;2023-06-14T02:41:11;7.77;;;4.20;;
69754;SDS011;57023;52.218;5.158;2023-06-14T02:43:37;6.43;;;3.80;;
69754;SDS011;57023;52.218;5.158;2023-06-14T02:46:03;6.78;;;3.90;;
69754;SDS011;57023;52.218;5.158;2023-06-14T02:48:28;9.13;;;3.80;;
69754;SDS011;57023;52.218;5.158;2023-06-14T02:50:54;9.50;;;4.10;;
69754;SDS011;57023;52.218;5.158;2023-06-14T02:53:21;8.67;;;3.70;;
69754;SDS011;57023;52.218;5.158;2023-06-14T02:55:46;9.00;;;3.83;;
69754;SDS011;57023;52.218;5.158;2023-06-14T02:58:15;7.07;;;3.65;;
69754;SDS011;57023;52.218;5.158;2023-06-14T03:00:41;8.88;;;3.65;;
69754;SDS011;57023;52.218;5.158;2023-06-14T03:03:07;7.53;;;3.83;;
69754;SDS011;57023;52.218;5.158;2023-06-14T03:05:40;5.97;;;3.55;;
69754;SDS011;57023;52.218;5.158;2023-06-14T03:08:11;7.10;;;3.67;;
69754;SDS011;57023;52.218;5.158;2023-06-14T03:10:41;6.55;;;3.47;;
69754;SDS011;57023;52.218;5.158;2023-06-14T03:13:13;6.30;;;3.80;;
69754;SDS011;57023;52.218;5.158;2023-06-14T03:15:39;8.30;;;3.88;;
69754;SDS011;57023;52.218;5.158;2023-06-14T03:18:07;8.68;;;3.75;;
69754;SDS011;57023;52.218;5.158;2023-06-14T03:20:34;9.07;;;3.85;;
69754;SDS011;57023;52.218;5.158;2023-06-14T03:23:01;6.20;;;3.63;;
69754;SDS011;57023;52.218;5.158;2023-06-14T03:25:27;7.95;;;3.75;;
69754;SDS011;57023;52.218;5.158;2023-06-14T03:27:54;7.43;;;3.70;;
69754;SDS011;57023;52.218;5.158;2023-06-14T03:30:20;10.10;;;4.32;;
69754;SDS011;57023;52.218;5.158;2023-06-14T03:32:45;6.82;;;3.72;;
69754;SDS011;57023;52.218;5.158;2023-06-14T03:35:10;8.32;;;3.78;;
69754;SDS011;57023;52.218;5.158;2023-06-14T03:37:41;10.40;;;3.63;;
69754;SDS011;57023;52.218;5.158;2023-06-14T03:40:07;6.43;;;3.58;;
69754;SDS011;57023;52.218;5.158;2023-06-14T03:42:33;9.07;;;3.70;;
69754;SDS011;57023;52.218;5.158;2023-06-14T03:44:58;8.52;;;3.88;;
69754;SDS011;57023;52.218;5.158;2023-06-14T03:47:23;6.97;;;3.78;;
69754;SDS011;57023;52.218;5.158;2023-06-14T03:49:49;8.75;;;3.92;;
69754;SDS011;57023;52.218;5.158;2023-06-14T03:52:14;7.28;;;3.88;;
69754;SDS011;57023;52.218;5.158;2023-06-14T03:54:41;8.75;;;3.80;;
69754;SDS011;57023;52.218;5.158;2023-06-14T03:57:08;7.47;;;3.65;;
69754;SDS011;57023;52.218;5.158;2023-06-14T03:59:33;10.93;;;3.75;;
69754;SDS011;57023;52.218;5.158;2023-06-14T04:01:58;7.82;;;3.97;;
69754;SDS011;57023;52.218;5.158;2023-06-14T04:04:24;11.30;;;3.95;;
69754;SDS011;57023;52.218;5.158;2023-06-14T04:06:53;6.35;;;3.50;;
69754;SDS011;57023;52.218;5.158;2023-06-14T04:09:19;7.63;;;3.60;;
69754;SDS011;57023;52.218;5.158;2023-06-14T04:11:44;7.43;;;3.67;;
69754;SDS011;57023;52.218;5.158;2023-06-14T04:14:12;8.65;;;3.90;;
69754;SDS011;57023;52.218;5.158;2023-06-14T04:16:38;6.15;;;3.70;;
69754;SDS011;57023;52.218;5.158;2023-06-14T04:19:03;6.82;;;3.72;;
69754;SDS011;57023;52.218;5.158;2023-06-14T04:21:28;8.02;;;3.60;;
69754;SDS011;57023;52.218;5.158;2023-06-14T04:23:54;7.32;;;3.72;;
69754;SDS011;57023;52.218;5.158;2023-06-14T04:26:20;6.65;;;4.10;;
69754;SDS011;57023;52.218;5.158;2023-06-14T04:28:48;8.45;;;3.90;;
69754;SDS011;57023;52.218;5.158;2023-06-14T04:31:14;9.50;;;3.60;;
69754;SDS011;57023;52.218;5.158;2023-06-14T04:33:41;6.22;;;3.83;;
69754;SDS011;57023;52.218;5.158;2023-06-14T04:36:11;6.82;;;3.50;;
69754;SDS011;57023;52.218;5.158;2023-06-14T04:38:38;10.40;;;4.00;;
69754;SDS011;57023;52.218;5.158;2023-06-14T04:41:04;6.32;;;3.95;;
69754;SDS011;57023;52.218;5.158;2023-06-14T04:43:30;6.00;;;3.53;;
69754;SDS011;57023;52.218;5.158;2023-06-14T04:45:56;7.72;;;4.07;;
69754;SDS011;57023;52.218;5.158;2023-06-14T04:48:22;6.95;;;3.97;;
69754;SDS011;57023;52.218;5.158;2023-06-14T04:50:47;10.50;;;3.80;;
69754;SDS011;57023;52.218;5.158;2023-06-14T04:53:13;8.57;;;4.00;;
69754;SDS011;57023;52.218;5.158;2023-06-14T04:55:38;9.77;;;3.88;;
69754;SDS011;57023;52.218;5.158;2023-06-14T04:58:04;9.98;;;3.80;;
69754;SDS011;57023;52.218;5.158;2023-06-14T05:00:29;9.00;;;3.83;;
69754;SDS011;57023;52.218;5.158;2023-06-14T05:02:55;10.07;;;4.00;;
69754;SDS011;57023;52.218;5.158;2023-06-14T05:05:21;6.60;;;3.80;;
69754;SDS011;57023;52.218;5.158;2023-06-14T05:07:49;6.07;;;3.90;;
69754;SDS011;57023;52.218;5.158;2023-06-14T05:10:14;9.18;;;4.00;;
69754;SDS011;57023;52.218;5.158;2023-06-14T05:12:40;8.65;;;3.78;;
69754;SDS011;57023;52.218;5.158;2023-06-14T05:15:05;11.15;;;4.15;;
69754;SDS011;57023;52.218;5.158;2023-06-14T05:17:32;7.18;;;3.97;;
69754;SDS011;57023;52.218;5.158;2023-06-14T05:19:57;7.25;;;4.00;;
69754;SDS011;57023;52.218;5.158;2023-06-14T05:22:23;8.35;;;3.80;;
69754;SDS011;57023;52.218;5.158;2023-06-14T05:24:48;6.97;;;3.83;;
69754;SDS011;57023;52.218;5.158;2023-06-14T05:27:13;7.15;;;4.00;;
69754;SDS011;57023;52.218;5.158;2023-06-14T05:29:39;7.43;;;3.97;;
69754;SDS011;57023;52.218;5.158;2023-06-14T05:32:05;6.63;;;3.70;;
69754;SDS011;57023;52.218;5.158;2023-06-14T05:34:31;7.85;;;4.05;;
69754;SDS011;57023;52.218;5.158;2023-06-14T05:36:57;6.28;;;3.70;;
69754;SDS011;57023;52.218;5.158;2023-06-14T05:39:25;6.18;;;3.90;;
69754;SDS011;57023;52.218;5.158;2023-06-14T05:41:50;9.57;;;3.90;;
69754;SDS011;57023;52.218;5.158;2023-06-14T05:44:15;6.72;;;4.20;;
69754;SDS011;57023;52.218;5.158;2023-06-14T05:46:44;7.03;;;3.95;;
69754;SDS011;57023;52.218;5.158;2023-06-14T05:49:09;7.78;;;4.03;;
69754;SDS011;57023;52.218;5.158;2023-06-14T05:51:34;8.38;;;4.15;;
69754;SDS011;57023;52.218;5.158;2023-06-14T05:54:00;7.63;;;4.05;;
69754;SDS011;57023;52.218;5.158;2023-06-14T05:56:28;13.05;;;4.18;;
69754;SDS011;57023;52.218;5.158;2023-06-14T05:58:53;8.13;;;4.30;;
69754;SDS011;57023;52.218;5.158;2023-06-14T06:01:19;7.38;;;4.00;;
69754;SDS011;57023;52.218;5.158;2023-06-14T06:03:45;7.53;;;4.05;;
69754;SDS011;57023;52.218;5.158;2023-06-14T06:06:10;5.90;;;4.00;;
69754;SDS011;57023;52.218;5.158;2023-06-14T06:08:36;6.93;;;4.25;;
69754;SDS011;57023;52.218;5.158;2023-06-14T06:11:02;7.32;;;4.10;;
69754;SDS011;57023;52.218;5.158;2023-06-14T06:13:27;9.32;;;4.40;;
69754;SDS011;57023;52.218;5.158;2023-06-14T06:15:52;7.78;;;4.10;;
69754;SDS011;57023;52.218;5.158;2023-06-14T06:18:18;10.55;;;4.72;;
69754;SDS011;57023;52.218;5.158;2023-06-14T06:20:43;6.78;;;3.95;;
69754;SDS011;57023;52.218;5.158;2023-06-14T06:23:09;9.57;;;4.30;;
69754;SDS011;57023;52.218;5.158;2023-06-14T06:25:34;7.15;;;4.20;;
69754;SDS011;57023;52.218;5.158;2023-06-14T06:28:00;8.07;;;4.25;;
69754;SDS011;57023;52.218;5.158;2023-06-14T06:30:26;8.02;;;4.10;;
69754;SDS011;57023;52.218;5.158;2023-06-14T06:32:51;7.53;;;4.28;;
69754;SDS011;57023;52.218;5.158;2023-06-14T06:35:18;7.88;;;4.53;;
69754;SDS011;57023;52.218;5.158;2023-06-14T06:37:43;15.40;;;4.82;;
69754;SDS011;57023;52.218;5.158;2023-06-14T06:40:09;9.13;;;4.33;;
69754;SDS011;57023;52.218;5.158;2023-06-14T06:42:35;8.70;;;4.20;;
69754;SDS011;57023;52.218;5.158;2023-06-14T06:45:00;8.70;;;4.13;;
69754;SDS011;57023;52.218;5.158;2023-06-14T06:47:26;7.53;;;3.92;;
69754;SDS011;57023;52.218;5.158;2023-06-14T06:49:51;7.25;;;3.97;;
69754;SDS011;57023;52.218;5.158;2023-06-14T06:52:17;8.65;;;4.28;;
69754;SDS011;57023;52.218;5.158;2023-06-14T06:54:42;7.43;;;4.10;;
69754;SDS011;57023;52.218;5.158;2023-06-14T06:57:07;10.38;;;4.50;;
69754;SDS011;57023;52.218;5.158;2023-06-14T06:59:33;8.43;;;4.22;;
69754;SDS011;57023;52.218;5.158;2023-06-14T07:01:59;6.13;;;4.22;;
69754;SDS011;57023;52.218;5.158;2023-06-14T07:04:24;7.63;;;4.03;;
69754;SDS011;57023;52.218;5.158;2023-06-14T07:06:50;8.90;;;4.25;;
69754;SDS011;57023;52.218;5.158;2023-06-14T07:09:15;8.10;;;4.00;;
69754;SDS011;57023;52.218;5.158;2023-06-14T07:11:44;8.82;;;4.20;;
69754;SDS011;57023;52.218;5.158;2023-06-14T07:14:10;7.82;;;4.10;;
69754;SDS011;57023;52.218;5.158;2023-06-14T07:16:35;6.57;;;4.20;;
69754;SDS011;57023;52.218;5.158;2023-06-14T07:19:03;6.47;;;4.38;;
69754;SDS011;57023;52.218;5.158;2023-06-14T07:21:29;7.95;;;4.07;;
69754;SDS011;57023;52.218;5.158;2023-06-14T07:24:02;9.43;;;4.03;;
69754;SDS011;57023;52.218;5.158;2023-06-14T07:26:28;7.43;;;3.92;;
69754;SDS011;57023;52.218;5.158;2023-06-14T07:28:53;6.70;;;4.05;;
69754;SDS011;57023;52.218;5.158;2023-06-14T07:31:18;8.57;;;3.95;;
69754;SDS011;57023;52.218;5.158;2023-06-14T07:33:44;6.63;;;4.03;;
69754;SDS011;57023;52.218;5.158;2023-06-14T07:36:10;6.95;;;4.00;;
69754;SDS011;57023;52.218;5.158;2023-06-14T07:38:35;9.13;;;3.97;;
69754;SDS011;57023;52.218;5.158;2023-06-14T07:41:01;6.17;;;4.00;;
69754;SDS011;57023;52.218;5.158;2023-06-14T07:43:27;8.02;;;4.13;;
69754;SDS011;57023;52.218;5.158;2023-06-14T07:45:52;8.07;;;4.10;;
69754;SDS011;57023;52.218;5.158;2023-06-14T07:48:18;6.90;;;4.00;;
69754;SDS011;57023;52.218;5.158;2023-06-14T07:50:46;6.43;;;3.80;;
69754;SDS011;57023;52.218;5.158;2023-06-14T07:53:17;8.20;;;3.60;;
69754;SDS011;57023;52.218;5.158;2023-06-14T07:55:42;7.83;;;3.90;;
69754;SDS011;57023;52.218;5.158;2023-06-14T07:58:08;8.97;;;3.70;;
69754;SDS011;57023;52.218;5.158;2023-06-14T08:00:34;8.70;;;4.10;;
69754;SDS011;57023;52.218;5.158;2023-06-14T08:02:59;8.15;;;3.78;;
69754;SDS011;57023;52.218;5.158;2023-06-14T08:05:25;10.40;;;4.00;;
69754;SDS011;57023;52.218;5.158;2023-06-14T08:07:54;5.22;;;3.50;;
69754;SDS011;57023;52.218;5.158;2023-06-14T08:10:19;6.03;;;3.50;;
69754;SDS011;57023;52.218;5.158;2023-06-14T08:12:45;7.50;;;3.60;;
69754;SDS011;57023;52.218;5.158;2023-06-14T08:15:10;4.90;;;3.40;;
69754;SDS011;57023;52.218;5.158;2023-06-14T08:17:36;5.30;;;3.20;;
69754;SDS011;57023;52.218;5.158;2023-06-14T08:20:01;6.17;;;3.30;;
69754;SDS011;57023;52.218;5.158;2023-06-14T08:22:29;7.30;;;3.40;;
69754;SDS011;57023;52.218;5.158;2023-06-14T08:24:58;5.28;;;3.30;;
69754;SDS011;57023;52.218;5.158;2023-06-14T08:27:24;4.87;;;3.17;;
69754;SDS011;57023;52.218;5.158;2023-06-14T08:29:50;9.57;;;3.10;;
69754;SDS011;57023;52.218;5.158;2023-06-14T08:32:15;5.77;;;3.00;;
69754;SDS011;57023;52.218;5.158;2023-06-14T08:34:40;9.70;;;3.30;;
69754;SDS011;57023;52.218;5.158;2023-06-14T08:37:06;7.10;;;3.10;;
69754;SDS011;57023;52.218;5.158;2023-06-14T08:39:34;8.95;;;3.10;;
69754;SDS011;57023;52.218;5.158;2023-06-14T08:42:00;7.17;;;2.93;;
69754;SDS011;57023;52.218;5.158;2023-06-14T08:44:26;4.88;;;2.90;;
69754;SDS011;57023;52.218;5.158;2023-06-14T08:46:51;6.80;;;3.07;;
69754;SDS011;57023;52.218;5.158;2023-06-14T08:49:18;7.00;;;3.05;;
69754;SDS011;57023;52.218;5.158;2023-06-14T08:51:44;8.10;;;2.97;;
69754;SDS011;57023;52.218;5.158;2023-06-14T08:54:10;5.93;;;2.80;;
69754;SDS011;57023;52.218;5.158;2023-06-14T08:56:37;7.57;;;3.20;;
69754;SDS011;57023;52.218;5.158;2023-06-14T08:59:03;4.80;;;3.20;;
69754;SDS011;57023;52.218;5.158;2023-06-14T09:01:37;8.05;;;3.13;;
69754;SDS011;57023;52.218;5.158;2023-06-14T09:04:03;6.53;;;3.30;;
69754;SDS011;57023;52.218;5.158;2023-06-14T09:06:30;5.07;;;3.10;;
69754;SDS011;57023;52.218;5.158;2023-06-14T09:08:56;6.63;;;2.88;;
69754;SDS011;57023;52.218;5.158;2023-06-14T09:11:22;6.03;;;2.90;;
69754;SDS011;57023;52.218;5.158;2023-06-14T09:13:48;10.10;;;2.90;;
69754;SDS011;57023;52.218;5.158;2023-06-14T09:16:14;6.22;;;2.90;;
69754;SDS011;57023;52.218;5.158;2023-06-14T09:18:40;6.23;;;2.90;;
69754;SDS011;57023;52.218;5.158;2023-06-14T09:21:10;4.65;;;2.90;;
69754;SDS011;57023;52.218;5.158;2023-06-14T09:23:43;8.20;;;3.05;;
69754;SDS011;57023;52.218;5.158;2023-06-14T09:26:13;7.18;;;3.28;;
69754;SDS011;57023;52.218;5.158;2023-06-14T09:31:12;4.40;;;2.80;;
69754;SDS011;57023;52.218;5.158;2023-06-14T09:33:41;6.10;;;2.80;;
69754;SDS011;57023;52.218;5.158;2023-06-14T09:36:11;8.80;;;3.00;;
69754;SDS011;57023;52.218;5.158;2023-06-14T09:38:39;9.48;;;3.20;;
69754;SDS011;57023;52.218;5.158;2023-06-14T09:41:05;4.85;;;2.80;;
69754;SDS011;57023;52.218;5.158;2023-06-14T09:43:31;4.10;;;2.53;;
69754;SDS011;57023;52.218;5.158;2023-06-14T09:45:58;5.72;;;2.67;;
69754;SDS011;57023;52.218;5.158;2023-06-14T09:48:25;4.32;;;2.70;;
69754;SDS011;57023;52.218;5.158;2023-06-14T09:50:53;5.88;;;2.92;;
69754;SDS011;57023;52.218;5.158;2023-06-14T09:53:23;5.15;;;2.80;;
69754;SDS011;57023;52.218;5.158;2023-06-14T09:55:49;6.35;;;2.70;;
69754;SDS011;57023;52.218;5.158;2023-06-14T09:58:17;8.25;;;3.13;;
69754;SDS011;57023;52.218;5.158;2023-06-14T10:00:45;4.95;;;3.10;;
69754;SDS011;57023;52.218;5.158;2023-06-14T10:03:13;7.78;;;2.92;;
69754;SDS011;57023;52.218;5.158;2023-06-14T10:05:46;11.50;;;2.90;;
69754;SDS011;57023;52.218;5.158;2023-06-14T10:08:15;6.85;;;2.90;;
69754;SDS011;57023;52.218;5.158;2023-06-14T10:10:42;4.55;;;2.70;;
69754;SDS011;57023;52.218;5.158;2023-06-14T10:18:17;8.02;;;2.60;;
69754;SDS011;57023;52.218;5.158;2023-06-14T10:23:40;5.57;;;2.67;;
69754;SDS011;57023;52.218;5.158;2023-06-14T10:26:07;6.80;;;2.65;;
69754;SDS011;57023;52.218;5.158;2023-06-14T10:28:32;7.33;;;2.70;;
69754;SDS011;57023;52.218;5.158;2023-06-14T10:31:06;7.40;;;3.15;;
69754;SDS011;57023;52.218;5.158;2023-06-14T10:33:35;4.25;;;2.60;;
69754;SDS011;57023;52.218;5.158;2023-06-14T10:36:08;4.88;;;2.63;;
69754;SDS011;57023;52.218;5.158;2023-06-14T10:38:37;4.05;;;2.60;;
69754;SDS011;57023;52.218;5.158;2023-06-14T10:41:04;5.63;;;2.60;;
69754;SDS011;57023;52.218;5.158;2023-06-14T10:43:29;4.28;;;2.63;;
69754;SDS011;57023;52.218;5.158;2023-06-14T10:48:49;5.20;;;2.55;;
69754;SDS011;57023;52.218;5.158;2023-06-14T10:51:22;4.25;;;2.50;;
69754;SDS011;57023;52.218;5.158;2023-06-14T10:53:55;5.65;;;2.58;;
69754;SDS011;57023;52.218;5.158;2023-06-14T10:56:22;4.38;;;2.70;;
69754;SDS011;57023;52.218;5.158;2023-06-14T10:58:57;4.38;;;2.60;;
69754;SDS011;57023;52.218;5.158;2023-06-14T11:01:32;6.15;;;2.55;;
69754;SDS011;57023;52.218;5.158;2023-06-14T11:04:08;4.18;;;2.58;;
69754;SDS011;57023;52.218;5.158;2023-06-14T11:09:16;6.30;;;2.40;;
69754;SDS011;57023;52.218;5.158;2023-06-14T11:11:49;10.60;;;2.88;;
69754;SDS011;57023;52.218;5.158;2023-06-14T11:14:17;4.97;;;2.70;;
69754;SDS011;57023;52.218;5.158;2023-06-14T11:16:47;5.07;;;2.55;;
69754;SDS011;57023;52.218;5.158;2023-06-14T11:19:13;4.93;;;2.53;;
69754;SDS011;57023;52.218;5.158;2023-06-14T11:21:39;3.60;;;2.40;;
69754;SDS011;57023;52.218;5.158;2023-06-14T11:24:09;3.70;;;2.40;;
69754;SDS011;57023;52.218;5.158;2023-06-14T11:26:37;5.35;;;2.50;;
69754;SDS011;57023;52.218;5.158;2023-06-14T11:29:02;4.85;;;2.70;;
69754;SDS011;57023;52.218;5.158;2023-06-14T11:31:28;4.70;;;2.60;;
69754;SDS011;57023;52.218;5.158;2023-06-14T11:33:54;6.05;;;2.90;;
69754;SDS011;57023;52.218;5.158;2023-06-14T11:36:21;6.70;;;2.70;;
69754;SDS011;57023;52.218;5.158;2023-06-14T11:38:47;4.72;;;2.47;;
69754;SDS011;57023;52.218;5.158;2023-06-14T11:41:12;11.97;;;3.10;;
69754;SDS011;57023;52.218;5.158;2023-06-14T11:43:39;4.43;;;2.53;;
69754;SDS011;57023;52.218;5.158;2023-06-14T11:46:11;4.00;;;2.50;;
69754;SDS011;57023;52.218;5.158;2023-06-14T11:48:40;4.60;;;2.53;;
69754;SDS011;57023;52.218;5.158;2023-06-14T11:51:06;4.72;;;2.50;;
69754;SDS011;57023;52.218;5.158;2023-06-14T11:53:33;3.78;;;2.45;;
69754;SDS011;57023;52.218;5.158;2023-06-14T11:55:58;3.60;;;2.30;;
69754;SDS011;57023;52.218;5.158;2023-06-14T12:00:50;5.45;;;2.60;;
69754;SDS011;57023;52.218;5.158;2023-06-14T12:05:40;5.23;;;2.80;;
69754;SDS011;57023;52.218;5.158;2023-06-14T12:10:39;3.45;;;2.40;;
69754;SDS011;57023;52.218;5.158;2023-06-14T12:13:06;5.28;;;2.78;;
69754;SDS011;57023;52.218;5.158;2023-06-14T12:17:59;5.23;;;2.50;;
69754;SDS011;57023;52.218;5.158;2023-06-14T12:20:28;6.80;;;2.80;;
69754;SDS011;57023;52.218;5.158;2023-06-14T12:22:55;3.90;;;2.47;;
69754;SDS011;57023;52.218;5.158;2023-06-14T12:27:56;7.70;;;3.35;;
69754;SDS011;57023;52.218;5.158;2023-06-14T12:32:47;9.97;;;2.80;;
69754;SDS011;57023;52.218;5.158;2023-06-14T12:35:13;5.35;;;2.55;;
69754;SDS011;57023;52.218;5.158;2023-06-14T12:42:32;4.60;;;2.63;;
69754;SDS011;57023;52.218;5.158;2023-06-14T12:44:58;6.47;;;2.65;;
69754;SDS011;57023;52.218;5.158;2023-06-14T12:47:24;5.15;;;2.58;;
69754;SDS011;57023;52.218;5.158;2023-06-14T12:49:49;9.67;;;2.90;;
69754;SDS011;57023;52.218;5.158;2023-06-14T12:52:15;6.05;;;2.50;;
69754;SDS011;57023;52.218;5.158;2023-06-14T12:54:40;4.93;;;2.50;;
69754;SDS011;57023;52.218;5.158;2023-06-14T12:57:06;5.10;;;2.57;;
69754;SDS011;57023;52.218;5.158;2023-06-14T12:59:31;5.22;;;2.67;;
69754;SDS011;57023;52.218;5.158;2023-06-14T13:01:59;3.50;;;2.40;;
69754;SDS011;57023;52.218;5.158;2023-06-14T13:04:34;8.85;;;2.75;;
69754;SDS011;57023;52.218;5.158;2023-06-14T13:07:02;5.03;;;2.65;;
69754;SDS011;57023;52.218;5.158;2023-06-14T13:09:28;5.95;;;2.58;;
69754;SDS011;57023;52.218;5.158;2023-06-14T13:11:53;9.07;;;3.33;;
69754;SDS011;57023;52.218;5.158;2023-06-14T13:14:18;8.83;;;2.83;;
69754;SDS011;57023;52.218;5.158;2023-06-14T13:16:44;4.25;;;2.50;;
69754;SDS011;57023;52.218;5.158;2023-06-14T13:19:09;5.53;;;2.70;;
69754;SDS011;57023;52.218;5.158;2023-06-14T13:21:34;5.22;;;2.60;;
69754;SDS011;57023;52.218;5.158;2023-06-14T13:24:00;6.28;;;2.70;;
69754;SDS011;57023;52.218;5.158;2023-06-14T13:26:25;5.97;;;2.70;;
69754;SDS011;57023;52.218;5.158;2023-06-14T13:28:51;5.22;;;2.50;;
69754;SDS011;57023;52.218;5.158;2023-06-14T13:31:17;7.32;;;2.63;;
69754;SDS011;57023;52.218;5.158;2023-06-14T13:33:42;5.27;;;2.40;;
69754;SDS011;57023;52.218;5.158;2023-06-14T13:36:07;5.40;;;2.53;;
69754;SDS011;57023;52.218;5.158;2023-06-14T13:38:33;4.95;;;2.75;;
69754;SDS011;57023;52.218;5.158;2023-06-14T13:40:58;3.93;;;2.50;;
69754;SDS011;57023;52.218;5.158;2023-06-14T13:43:23;7.63;;;2.50;;
69754;SDS011;57023;52.218;5.158;2023-06-14T13:45:49;4.78;;;2.42;;
69754;SDS011;57023;52.218;5.158;2023-06-14T13:48:14;6.33;;;2.57;;
69754;SDS011;57023;52.218;5.158;2023-06-14T13:50:39;4.60;;;2.50;;
69754;SDS011;57023;52.218;5.158;2023-06-14T13:53:05;9.18;;;2.40;;
69754;SDS011;57023;52.218;5.158;2023-06-14T13:55:30;5.85;;;2.75;;
69754;SDS011;57023;52.218;5.158;2023-06-14T13:57:55;3.67;;;2.53;;
69754;SDS011;57023;52.218;5.158;2023-06-14T14:00:21;6.40;;;2.60;;
69754;SDS011;57023;52.218;5.158;2023-06-14T14:02:47;4.82;;;2.70;;
69754;SDS011;57023;52.218;5.158;2023-06-14T14:05:15;6.95;;;2.33;;
69754;SDS011;57023;52.218;5.158;2023-06-14T14:07:41;5.78;;;2.78;;
69754;SDS011;57023;52.218;5.158;2023-06-14T14:10:06;5.27;;;2.40;;
69754;SDS011;57023;52.218;5.158;2023-06-14T14:12:32;6.63;;;2.50;;
69754;SDS011;57023;52.218;5.158;2023-06-14T14:14:58;4.57;;;2.70;;
69754;SDS011;57023;52.218;5.158;2023-06-14T14:17:23;5.00;;;2.40;;
69754;SDS011;57023;52.218;5.158;2023-06-14T14:19:48;4.47;;;2.53;;
69754;SDS011;57023;52.218;5.158;2023-06-14T14:22:13;5.03;;;2.70;;
69754;SDS011;57023;52.218;5.158;2023-06-14T14:24:39;3.70;;;2.50;;
69754;SDS011;57023;52.218;5.158;2023-06-14T14:27:04;4.60;;;2.60;;
69754;SDS011;57023;52.218;5.158;2023-06-14T14:29:31;4.45;;;2.40;;
69754;SDS011;57023;52.218;5.158;2023-06-14T14:31:57;4.30;;;2.30;;
69754;SDS011;57023;52.218;5.158;2023-06-14T14:34:22;3.75;;;2.42;;
69754;SDS011;57023;52.218;5.158;2023-06-14T14:36:52;4.78;;;2.60;;
69754;SDS011;57023;52.218;5.158;2023-06-14T14:39:17;4.70;;;2.50;;
69754;SDS011;57023;52.218;5.158;2023-06-14T14:41:42;7.43;;;2.60;;
69754;SDS011;57023;52.218;5.158;2023-06-14T14:44:08;3.77;;;2.37;;
69754;SDS011;57023;52.218;5.158;2023-06-14T14:46:33;3.70;;;2.58;;
69754;SDS011;57023;52.218;5.158;2023-06-14T14:48:59;4.67;;;2.40;;
69754;SDS011;57023;52.218;5.158;2023-06-14T14:51:25;7.45;;;2.70;;
69754;SDS011;57023;52.218;5.158;2023-06-14T14:53:53;5.43;;;2.72;;
69754;SDS011;57023;52.218;5.158;2023-06-14T14:56:18;4.23;;;2.50;;
69754;SDS011;57023;52.218;5.158;2023-06-14T14:58:43;5.97;;;2.38;;
69754;SDS011;57023;52.218;5.158;2023-06-14T15:01:09;4.53;;;2.38;;
69754;SDS011;57023;52.218;5.158;2023-06-14T15:03:35;4.80;;;2.50;;
69754;SDS011;57023;52.218;5.158;2023-06-14T15:06:00;7.85;;;2.60;;
69754;SDS011;57023;52.218;5.158;2023-06-14T15:08:26;8.07;;;3.10;;
69754;SDS011;57023;52.218;5.158;2023-06-14T15:10:51;5.03;;;2.60;;
69754;SDS011;57023;52.218;5.158;2023-06-14T15:13:16;3.93;;;2.50;;
69754;SDS011;57023;52.218;5.158;2023-06-14T15:15:45;4.23;;;2.50;;
69754;SDS011;57023;52.218;5.158;2023-06-14T15:18:10;4.65;;;2.50;;
69754;SDS011;57023;52.218;5.158;2023-06-14T15:20:35;4.50;;;2.58;;
69754;SDS011;57023;52.218;5.158;2023-06-14T15:23:01;5.10;;;2.72;;
69754;SDS011;57023;52.218;5.158;2023-06-14T15:25:29;3.87;;;2.40;;
69754;SDS011;57023;52.218;5.158;2023-06-14T15:27:55;4.30;;;2.30;;